createdAt,value
2017-06-22T00:00:05.053Z,21.57
2017-06-22T00:01:05.630Z,21.64
2017-06-22T00:02:06.208Z,21.69
2017-06-22T00:03:06.786Z,21.57
2017-06-22T00:04:07.364Z,21.55
2017-06-22T00:05:07.941Z,21.42
2017-06-22T00:06:08.519Z,21.36
2017-06-22T00:07:09.097Z,21.51
2017-06-22T00:08:09.675Z,21.46
2017-06-22T00:09:10.253Z,21.37
2017-06-22T00:10:10.831Z,21.45
2017-06-22T00:11:11.410Z,21.40
2017-06-22T00:12:11.987Z,21.52
2017-06-22T00:13:12.565Z,21.42
2017-06-22T00:14:13.155Z,21.40
2017-06-22T00:15:13.733Z,21.32
2017-06-22T00:16:14.313Z,21.42
2017-06-22T00:17:14.890Z,21.45
2017-06-22T00:18:15.670Z,21.46
2017-06-22T00:19:16.260Z,21.52
2017-06-22T00:20:16.850Z,21.52
2017-06-22T00:21:17.430Z,21.50
2017-06-22T00:22:18.011Z,21.45
2017-06-22T00:23:18.588Z,21.39
2017-06-22T00:24:19.166Z,21.40
2017-06-22T00:25:19.746Z,21.35
2017-06-22T00:26:20.323Z,21.36
2017-06-22T00:27:20.902Z,21.27
2017-06-22T00:28:21.479Z,21.33
2017-06-22T00:29:22.059Z,21.46
2017-06-22T00:30:22.636Z,21.45
2017-06-22T00:31:23.216Z,21.54
2017-06-22T00:32:23.793Z,21.45
2017-06-22T00:33:24.571Z,21.46
2017-06-22T00:34:25.149Z,21.46
2017-06-22T00:35:25.728Z,21.45
2017-06-22T00:36:26.309Z,21.48
2017-06-22T00:37:26.888Z,21.52
2017-06-22T00:38:27.466Z,21.46
2017-06-22T00:39:28.045Z,21.48
2017-06-22T00:40:28.632Z,21.36
2017-06-22T00:41:29.210Z,21.40
2017-06-22T00:42:29.786Z,21.43
2017-06-22T00:43:30.364Z,21.46
2017-06-22T00:44:30.942Z,21.48
2017-06-22T00:45:31.519Z,21.42
2017-06-22T00:46:32.096Z,21.36
2017-06-22T00:47:32.674Z,21.50
2017-06-22T00:48:33.451Z,21.42
2017-06-22T00:49:34.030Z,21.48
2017-06-22T00:50:34.608Z,21.54
2017-06-22T00:51:35.187Z,21.48
2017-06-22T00:52:35.763Z,21.15
2017-06-22T00:53:36.342Z,21.18
2017-06-22T00:54:36.922Z,21.39
2017-06-22T00:55:37.508Z,21.27
2017-06-22T00:56:38.086Z,21.27
2017-06-22T00:57:38.663Z,21.27
2017-06-22T00:58:39.241Z,21.27
2017-06-22T00:59:39.819Z,21.24
2017-06-22T01:00:40.397Z,21.29
2017-06-22T01:01:40.974Z,21.18
2017-06-22T01:02:41.552Z,21.06
2017-06-22T01:03:42.128Z,21.24
2017-06-22T01:04:42.706Z,21.24
2017-06-22T01:05:43.285Z,21.03
2017-06-22T01:06:43.862Z,21.00
2017-06-22T01:07:44.440Z,21.05
2017-06-22T01:08:45.017Z,21.07
2017-06-22T01:09:45.595Z,21.03
2017-06-22T01:10:46.172Z,21.03
2017-06-22T01:11:46.751Z,20.67
2017-06-22T01:12:47.328Z,20.58
2017-06-22T01:13:47.907Z,20.34
2017-06-22T01:14:48.487Z,20.24
2017-06-22T01:15:49.065Z,20.19
2017-06-22T01:16:49.645Z,20.06
2017-06-22T01:17:50.224Z,19.95
2017-06-22T01:18:51.003Z,19.96
2017-06-22T01:19:51.580Z,19.84
2017-06-22T01:20:52.158Z,20.00
2017-06-22T01:21:52.736Z,19.88
2017-06-22T01:22:53.317Z,19.92
2017-06-22T01:23:53.892Z,20.18
2017-06-22T01:24:54.469Z,20.11
2017-06-22T01:25:55.047Z,20.07
2017-06-22T01:26:55.625Z,20.03
2017-06-22T01:27:56.202Z,19.89
2017-06-22T01:28:56.781Z,19.99
2017-06-22T01:29:57.358Z,19.77
2017-06-22T01:30:57.937Z,19.79
2017-06-22T01:31:58.514Z,19.79
2017-06-22T01:32:59.092Z,19.79
2017-06-22T01:33:59.670Z,19.71
2017-06-22T01:35:00.260Z,19.64
2017-06-22T01:36:00.838Z,19.56
2017-06-22T01:37:01.418Z,19.56
2017-06-22T01:38:01.994Z,19.69
2017-06-22T01:39:02.573Z,19.79
2017-06-22T01:40:03.151Z,19.74
2017-06-22T01:41:03.730Z,19.76
2017-06-22T01:42:04.307Z,19.79
2017-06-22T01:43:04.885Z,19.73
2017-06-22T01:44:05.463Z,19.79
2017-06-22T01:45:06.040Z,19.99
2017-06-22T01:46:06.618Z,20.13
2017-06-22T01:47:07.208Z,20.02
2017-06-22T01:48:07.789Z,19.94
2017-06-22T01:49:08.367Z,20.06
2017-06-22T01:50:08.948Z,19.86
2017-06-22T01:51:09.523Z,19.74
2017-06-22T01:52:10.102Z,19.96
2017-06-22T01:53:10.679Z,19.88
2017-06-22T01:54:11.257Z,20.06
2017-06-22T01:55:11.835Z,20.06
2017-06-22T01:56:12.412Z,20.00
2017-06-22T01:57:13.005Z,19.96
2017-06-22T01:58:13.582Z,19.82
2017-06-22T01:59:14.160Z,19.96
2017-06-22T02:00:14.739Z,19.86
2017-06-22T02:01:15.318Z,19.89
2017-06-22T02:02:15.896Z,19.89
2017-06-22T02:03:16.486Z,19.79
2017-06-22T02:04:17.065Z,19.64
2017-06-22T02:05:17.643Z,19.55
2017-06-22T02:06:18.223Z,19.59
2017-06-22T02:07:18.801Z,19.66
2017-06-22T02:08:19.381Z,19.69
2017-06-22T02:09:19.958Z,19.92
2017-06-22T02:10:20.537Z,19.66
2017-06-22T02:11:21.115Z,19.82
2017-06-22T02:12:21.694Z,19.86
2017-06-22T02:13:22.272Z,19.92
2017-06-22T02:14:22.850Z,20.09
2017-06-22T02:15:23.439Z,19.89
2017-06-22T02:16:24.017Z,19.79
2017-06-22T02:17:24.599Z,19.52
2017-06-22T02:18:25.173Z,19.30
2017-06-22T02:19:25.763Z,19.45
2017-06-22T02:20:26.341Z,19.56
2017-06-22T02:21:26.919Z,19.63
2017-06-22T02:22:27.509Z,19.31
2017-06-22T02:23:28.087Z,19.24
2017-06-22T02:24:28.665Z,19.07
2017-06-22T02:25:29.242Z,19.07
2017-06-22T02:26:29.820Z,19.07
2017-06-22T02:27:30.397Z,19.12
2017-06-22T02:28:30.975Z,19.11
2017-06-22T02:29:31.554Z,19.11
2017-06-22T02:30:32.131Z,19.04
2017-06-22T02:31:32.708Z,18.92
2017-06-22T02:32:33.299Z,19.02
2017-06-22T02:33:33.877Z,18.99
2017-06-22T02:34:34.455Z,18.95
2017-06-22T02:35:35.034Z,19.12
2017-06-22T02:36:35.611Z,19.14
2017-06-22T02:37:36.191Z,19.24
2017-06-22T02:38:36.767Z,19.39
2017-06-22T02:39:37.351Z,19.44
2017-06-22T02:40:37.923Z,19.37
2017-06-22T02:41:38.501Z,19.40
2017-06-22T02:42:39.078Z,19.51
2017-06-22T02:43:39.655Z,19.58
2017-06-22T02:44:40.232Z,19.69
2017-06-22T02:45:40.810Z,19.69
2017-06-22T02:46:41.387Z,19.91
2017-06-22T02:47:41.964Z,19.86
2017-06-22T02:48:42.542Z,19.82
2017-06-22T02:49:43.119Z,19.91
2017-06-22T02:50:43.698Z,19.89
2017-06-22T02:51:44.274Z,19.85
2017-06-22T02:52:44.851Z,20.02
2017-06-22T02:53:45.429Z,20.00
2017-06-22T02:54:46.006Z,19.96
2017-06-22T02:55:46.596Z,19.96
2017-06-22T02:56:47.175Z,20.02
2017-06-22T02:57:47.752Z,19.86
2017-06-22T02:58:48.332Z,19.88
2017-06-22T02:59:48.910Z,19.89
2017-06-22T03:00:49.487Z,19.82
2017-06-22T03:01:50.066Z,19.89
2017-06-22T03:02:50.643Z,19.86
2017-06-22T03:03:51.222Z,19.88
2017-06-22T03:04:51.799Z,19.88
2017-06-22T03:05:52.376Z,19.85
2017-06-22T03:06:52.967Z,20.00
2017-06-22T03:07:53.547Z,19.95
2017-06-22T03:08:54.124Z,19.91
2017-06-22T03:09:54.705Z,19.96
2017-06-22T03:10:55.287Z,19.99
2017-06-22T03:11:55.862Z,20.00
2017-06-22T03:12:56.454Z,20.11
2017-06-22T03:13:57.032Z,20.11
2017-06-22T03:14:57.613Z,20.11
2017-06-22T03:15:58.192Z,20.16
2017-06-22T03:16:58.770Z,20.06
2017-06-22T03:17:59.348Z,20.06
2017-06-22T03:18:59.928Z,20.09
2017-06-22T03:20:00.508Z,20.11
2017-06-22T03:21:01.097Z,20.09
2017-06-22T03:22:01.679Z,20.13
2017-06-22T03:23:02.257Z,20.13
2017-06-22T03:24:02.836Z,20.10
2017-06-22T03:25:03.414Z,20.10
2017-06-22T03:26:03.993Z,20.07
2017-06-22T03:27:04.571Z,20.06
2017-06-22T03:28:05.155Z,20.13
2017-06-22T03:29:05.741Z,20.11
2017-06-22T03:30:06.320Z,20.07
2017-06-22T03:31:06.898Z,20.14
2017-06-22T03:32:07.477Z,20.09
2017-06-22T03:33:08.056Z,20.11
2017-06-22T03:34:08.635Z,20.24
2017-06-22T03:35:09.214Z,20.19
2017-06-22T03:36:09.797Z,20.11
2017-06-22T03:37:10.375Z,20.11
2017-06-22T03:38:10.956Z,20.07
2017-06-22T03:39:11.538Z,20.14
2017-06-22T03:40:12.114Z,20.16
2017-06-22T03:41:12.693Z,20.26
2017-06-22T03:42:13.272Z,20.29
2017-06-22T03:43:13.850Z,20.26
2017-06-22T03:44:14.428Z,20.29
2017-06-22T03:45:15.005Z,20.26
2017-06-22T03:46:15.586Z,20.25
2017-06-22T03:47:16.167Z,20.21
2017-06-22T03:48:16.746Z,20.26
2017-06-22T03:49:17.327Z,20.21
2017-06-22T03:50:17.905Z,20.26
2017-06-22T03:51:18.485Z,20.26
2017-06-22T03:52:19.063Z,20.14
2017-06-22T03:53:19.642Z,20.22
2017-06-22T03:54:20.221Z,20.18
2017-06-22T03:55:20.799Z,20.18
2017-06-22T03:56:21.378Z,20.13
2017-06-22T03:57:21.956Z,20.22
2017-06-22T03:58:22.537Z,20.25
2017-06-22T03:59:23.117Z,20.14
2017-06-22T04:00:23.698Z,20.25
2017-06-22T04:01:24.276Z,20.34
2017-06-22T04:02:24.857Z,20.34
2017-06-22T04:03:25.449Z,20.28
2017-06-22T04:04:26.035Z,20.34
2017-06-22T04:05:26.610Z,20.29
2017-06-22T04:06:27.189Z,20.31
2017-06-22T04:07:27.769Z,20.31
2017-06-22T04:08:28.365Z,20.28
2017-06-22T04:09:28.941Z,20.25
2017-06-22T04:10:29.521Z,20.29
2017-06-22T04:11:30.101Z,20.37
2017-06-22T04:12:30.681Z,20.26
2017-06-22T04:13:31.260Z,20.22
2017-06-22T04:14:31.841Z,20.44
2017-06-22T04:15:32.423Z,20.40
2017-06-22T04:16:33.003Z,20.39
2017-06-22T04:17:33.584Z,20.55
2017-06-22T04:18:34.163Z,20.51
2017-06-22T04:19:34.743Z,20.56
2017-06-22T04:20:35.327Z,20.65
2017-06-22T04:21:35.904Z,20.55
2017-06-22T04:22:36.486Z,20.59
2017-06-22T04:23:37.065Z,20.59
2017-06-22T04:24:37.647Z,20.56
2017-06-22T04:25:38.226Z,20.51
2017-06-22T04:26:38.806Z,20.50
2017-06-22T04:27:39.387Z,20.51
2017-06-22T04:28:39.967Z,20.62
2017-06-22T04:29:40.550Z,20.72
2017-06-22T04:30:41.129Z,20.65
2017-06-22T04:31:41.711Z,20.62
2017-06-22T04:32:42.291Z,20.74
2017-06-22T04:33:42.871Z,20.69
2017-06-22T04:34:43.450Z,20.78
2017-06-22T04:35:44.032Z,20.77
2017-06-22T04:36:44.616Z,20.63
2017-06-22T04:37:45.195Z,20.69
2017-06-22T04:38:45.778Z,20.70
2017-06-22T04:39:46.358Z,20.80
2017-06-22T04:40:46.939Z,20.78
2017-06-22T04:41:47.522Z,20.87
2017-06-22T04:42:48.105Z,20.92
2017-06-22T04:43:48.686Z,20.93
2017-06-22T04:44:49.267Z,20.92
2017-06-22T04:45:49.848Z,20.97
2017-06-22T04:46:50.430Z,21.06
2017-06-22T04:47:51.013Z,21.03
2017-06-22T04:48:51.596Z,21.12
2017-06-22T04:49:52.176Z,21.15
2017-06-22T04:50:52.758Z,21.27
2017-06-22T04:51:53.340Z,21.29
2017-06-22T04:52:53.922Z,21.30
2017-06-22T04:53:54.505Z,21.27
2017-06-22T04:54:55.086Z,21.35
2017-06-22T04:55:55.668Z,21.35
2017-06-22T04:56:56.250Z,21.37
2017-06-22T04:57:56.832Z,21.36
2017-06-22T04:58:57.416Z,21.51
2017-06-22T04:59:57.996Z,21.51
2017-06-22T05:00:58.577Z,21.43
2017-06-22T05:01:59.170Z,21.43
2017-06-22T05:02:59.752Z,21.52
2017-06-22T05:04:00.333Z,21.43
2017-06-22T05:05:00.916Z,21.52
2017-06-22T05:06:01.497Z,21.51
2017-06-22T05:07:02.090Z,21.60
2017-06-22T05:08:02.673Z,21.66
2017-06-22T05:09:03.255Z,21.61
2017-06-22T05:10:03.836Z,21.67
2017-06-22T05:11:04.421Z,21.69
2017-06-22T05:12:05.011Z,21.69
2017-06-22T05:13:05.592Z,21.64
2017-06-22T05:14:06.174Z,21.72
2017-06-22T05:15:06.758Z,21.61
2017-06-22T05:16:07.339Z,21.69
2017-06-22T05:17:07.920Z,21.67
2017-06-22T05:18:08.502Z,21.66
2017-06-22T05:19:09.084Z,21.70
2017-06-22T05:20:09.666Z,21.73
2017-06-22T05:21:10.250Z,21.80
2017-06-22T05:22:10.829Z,21.82
2017-06-22T05:23:11.412Z,21.96
2017-06-22T05:24:11.993Z,21.98
2017-06-22T05:25:12.588Z,22.02
2017-06-22T05:26:13.169Z,22.08
2017-06-22T05:27:13.750Z,22.15
2017-06-22T05:28:14.332Z,22.17
2017-06-22T05:29:14.915Z,22.20
2017-06-22T05:30:15.496Z,22.15
2017-06-22T05:31:16.079Z,22.30
2017-06-22T05:32:16.660Z,22.35
2017-06-22T05:33:17.242Z,22.47
2017-06-22T05:34:17.835Z,22.55
2017-06-22T05:35:18.419Z,22.50
2017-06-22T05:36:18.998Z,22.57
2017-06-22T05:37:19.583Z,22.72
2017-06-22T05:38:20.167Z,22.70
2017-06-22T05:39:20.747Z,22.83
2017-06-22T05:40:21.328Z,22.84
2017-06-22T05:41:21.909Z,22.83
2017-06-22T05:42:22.492Z,22.83
2017-06-22T05:43:23.078Z,22.80
2017-06-22T05:44:23.667Z,22.87
2017-06-22T05:45:24.260Z,22.90
2017-06-22T05:46:24.843Z,22.90
2017-06-22T05:47:25.435Z,23.05
2017-06-22T05:48:26.017Z,23.09
2017-06-22T05:49:26.598Z,23.13
2017-06-22T05:50:27.181Z,23.17
2017-06-22T05:51:27.764Z,23.37
2017-06-22T05:52:28.346Z,23.62
2017-06-22T05:53:28.929Z,23.66
2017-06-22T05:54:29.510Z,23.87
2017-06-22T05:55:30.103Z,24.02
2017-06-22T05:56:30.697Z,24.02
2017-06-22T05:57:31.281Z,24.06
2017-06-22T05:58:31.886Z,24.05
2017-06-22T05:59:32.444Z,24.14
2017-06-22T06:00:33.027Z,24.23
2017-06-22T06:01:33.609Z,24.28
2017-06-22T06:02:34.195Z,24.38
2017-06-22T06:03:34.776Z,24.47
2017-06-22T06:04:35.357Z,24.53
2017-06-22T06:05:35.938Z,24.57
2017-06-22T06:06:36.521Z,24.55
2017-06-22T06:07:37.105Z,24.58
2017-06-22T06:08:37.690Z,24.68
2017-06-22T06:09:38.268Z,24.74
2017-06-22T06:10:38.850Z,24.69
2017-06-22T06:11:39.433Z,24.69
2017-06-22T06:12:40.016Z,24.81
2017-06-22T06:13:40.598Z,24.99
2017-06-22T06:14:41.181Z,24.88
2017-06-22T06:15:41.763Z,24.96
2017-06-22T06:16:42.345Z,24.95
2017-06-22T06:17:42.929Z,24.99
2017-06-22T06:18:43.511Z,24.95
2017-06-22T06:19:44.105Z,24.98
2017-06-22T06:20:44.690Z,24.96
2017-06-22T06:21:45.274Z,24.91
2017-06-22T06:22:45.855Z,24.86
2017-06-22T06:23:46.437Z,24.74
2017-06-22T06:24:47.021Z,24.78
2017-06-22T06:25:47.605Z,24.81
2017-06-22T06:26:48.187Z,24.96
2017-06-22T06:27:48.770Z,24.89
2017-06-22T06:28:49.352Z,24.80
2017-06-22T06:29:49.935Z,25.04
2017-06-22T06:30:50.519Z,24.93
2017-06-22T06:31:51.101Z,25.01
2017-06-22T06:32:51.684Z,24.86
2017-06-22T06:33:52.267Z,24.88
2017-06-22T06:34:52.849Z,25.13
2017-06-22T06:35:53.433Z,24.98
2017-06-22T06:36:54.017Z,24.92
2017-06-22T06:37:54.598Z,24.99
2017-06-22T06:38:55.182Z,25.03
2017-06-22T06:39:55.762Z,24.96
2017-06-22T06:40:56.345Z,24.89
2017-06-22T06:41:56.927Z,25.03
2017-06-22T06:42:57.511Z,25.03
2017-06-22T06:43:58.092Z,25.22
2017-06-22T06:44:58.674Z,25.11
2017-06-22T06:45:59.258Z,25.08
2017-06-22T06:46:59.840Z,25.33
2017-06-22T06:48:00.434Z,25.26
2017-06-22T06:49:01.018Z,25.50
2017-06-22T06:50:01.600Z,25.41
2017-06-22T06:51:02.183Z,25.62
2017-06-22T06:52:02.765Z,25.68
2017-06-22T06:53:03.348Z,25.65
2017-06-22T06:54:03.932Z,25.75
2017-06-22T06:55:04.513Z,25.87
2017-06-22T06:56:05.095Z,25.96
2017-06-22T06:57:05.677Z,26.05
2017-06-22T06:58:06.258Z,25.85
2017-06-22T06:59:06.842Z,25.75
2017-06-22T07:00:07.424Z,25.90
2017-06-22T07:01:08.018Z,25.77
2017-06-22T07:02:08.602Z,25.95
2017-06-22T07:03:09.183Z,25.96
2017-06-22T07:04:09.766Z,26.13
2017-06-22T07:05:10.351Z,26.09
2017-06-22T07:06:10.935Z,26.16
2017-06-22T07:07:11.517Z,26.25
2017-06-22T07:08:12.096Z,26.22
2017-06-22T07:09:12.678Z,26.26
2017-06-22T07:10:13.261Z,26.23
2017-06-22T07:11:13.854Z,26.28
2017-06-22T07:12:14.437Z,26.41
2017-06-22T07:13:15.018Z,26.43
2017-06-22T07:14:15.601Z,26.56
2017-06-22T07:15:16.184Z,26.56
2017-06-22T07:16:16.766Z,26.55
2017-06-22T07:17:17.348Z,26.77
2017-06-22T07:18:17.930Z,26.75
2017-06-22T07:19:18.525Z,26.89
2017-06-22T07:20:19.106Z,26.90
2017-06-22T07:21:19.700Z,26.90
2017-06-22T07:22:20.295Z,26.90
2017-06-22T07:23:20.878Z,27.00
2017-06-22T07:24:21.471Z,27.00
2017-06-22T07:25:22.079Z,27.07
2017-06-22T07:26:22.636Z,27.33
2017-06-22T07:27:23.218Z,27.49
2017-06-22T07:28:23.799Z,27.45
2017-06-22T07:29:24.394Z,27.29
2017-06-22T07:30:24.976Z,27.26
2017-06-22T07:31:25.557Z,27.48
2017-06-22T07:32:26.140Z,27.70
2017-06-22T07:33:26.724Z,27.68
2017-06-22T07:34:27.306Z,27.42
2017-06-22T07:35:27.889Z,27.37
2017-06-22T07:36:28.470Z,27.40
2017-06-22T07:37:29.054Z,27.71
2017-06-22T07:38:29.637Z,27.52
2017-06-22T07:39:30.219Z,27.71
2017-06-22T07:40:30.813Z,27.80
2017-06-22T07:41:31.397Z,27.67
2017-06-22T07:42:31.978Z,27.52
2017-06-22T07:43:32.560Z,27.86
2017-06-22T07:44:33.144Z,27.86
2017-06-22T07:45:33.727Z,28.17
2017-06-22T07:46:34.309Z,28.15
2017-06-22T07:47:34.891Z,28.17
2017-06-22T07:48:35.474Z,27.90
2017-06-22T07:49:36.068Z,28.08
2017-06-22T07:50:36.651Z,27.92
2017-06-22T07:51:37.232Z,28.17
2017-06-22T07:52:37.828Z,28.07
2017-06-22T07:53:38.409Z,28.04
2017-06-22T07:54:38.990Z,28.29
2017-06-22T07:55:39.573Z,28.38
2017-06-22T07:56:40.155Z,28.30
2017-06-22T07:57:40.740Z,28.30
2017-06-22T07:58:41.321Z,28.27
2017-06-22T07:59:41.916Z,28.26
2017-06-22T08:00:42.502Z,28.59
2017-06-22T08:01:43.096Z,28.70
2017-06-22T08:02:43.688Z,28.86
2017-06-22T08:03:44.272Z,28.75
2017-06-22T08:04:44.856Z,28.89
2017-06-22T08:05:45.438Z,28.69
2017-06-22T08:06:46.021Z,28.64
2017-06-22T08:07:46.603Z,28.63
2017-06-22T08:08:47.186Z,28.76
2017-06-22T08:09:47.770Z,28.97
2017-06-22T08:10:48.354Z,28.93
2017-06-22T08:11:48.937Z,29.36
2017-06-22T08:12:49.519Z,29.29
2017-06-22T08:13:50.103Z,29.53
2017-06-22T08:14:50.687Z,29.71
2017-06-22T08:15:51.269Z,29.47
2017-06-22T08:16:51.852Z,29.71
2017-06-22T08:17:52.435Z,29.81
2017-06-22T08:18:53.020Z,29.97
2017-06-22T08:19:53.602Z,30.06
2017-06-22T08:20:54.185Z,29.87
2017-06-22T08:21:54.769Z,29.88
2017-06-22T08:22:55.351Z,30.16
2017-06-22T08:23:55.934Z,30.30
2017-06-22T08:24:56.519Z,30.21
2017-06-22T08:25:57.103Z,30.53
2017-06-22T08:26:57.687Z,30.62
2017-06-22T08:27:58.271Z,30.53
2017-06-22T08:28:58.853Z,30.28
2017-06-22T08:29:59.438Z,30.18
2017-06-22T08:31:00.022Z,30.02
2017-06-22T08:32:00.607Z,30.05
2017-06-22T08:33:01.189Z,30.21
2017-06-22T08:34:01.772Z,30.32
2017-06-22T08:35:02.357Z,30.65
2017-06-22T08:36:02.941Z,30.97
2017-06-22T08:37:03.527Z,31.10
2017-06-22T08:38:04.109Z,30.68
2017-06-22T08:39:04.693Z,30.59
2017-06-22T08:40:05.278Z,30.70
2017-06-22T08:41:05.862Z,31.03
2017-06-22T08:42:06.446Z,30.92
2017-06-22T08:43:07.030Z,31.25
2017-06-22T08:44:07.613Z,31.49
2017-06-22T08:45:08.209Z,31.62
2017-06-22T08:46:08.792Z,31.65
2017-06-22T08:47:09.375Z,31.81
2017-06-22T08:48:09.961Z,31.70
2017-06-22T08:49:10.544Z,31.46
2017-06-22T08:50:11.130Z,31.77
2017-06-22T08:51:11.713Z,31.70
2017-06-22T08:52:12.297Z,31.73
2017-06-22T08:53:12.881Z,31.46
2017-06-22T08:54:13.467Z,31.55
2017-06-22T08:55:14.062Z,31.62
2017-06-22T08:56:14.648Z,31.51
2017-06-22T08:57:15.232Z,31.34
2017-06-22T08:58:15.817Z,31.31
2017-06-22T08:59:16.412Z,31.54
2017-06-22T09:00:16.996Z,31.96
2017-06-22T09:01:17.580Z,31.87
2017-06-22T09:02:18.179Z,31.94
2017-06-22T09:03:18.761Z,31.71
2017-06-22T09:04:19.345Z,31.58
2017-06-22T09:05:19.928Z,31.62
2017-06-22T09:06:20.523Z,31.73
2017-06-22T09:07:21.107Z,31.84
2017-06-22T09:08:21.690Z,31.76
2017-06-22T09:09:22.275Z,31.97
2017-06-22T09:10:22.861Z,32.03
2017-06-22T09:11:23.459Z,32.07
2017-06-22T09:12:24.043Z,32.00
2017-06-22T09:13:24.628Z,32.27
2017-06-22T09:14:25.212Z,32.41
2017-06-22T09:15:25.796Z,32.31
2017-06-22T09:16:26.383Z,32.31
2017-06-22T09:17:26.967Z,32.30
2017-06-22T09:18:27.552Z,32.45
2017-06-22T09:19:28.136Z,32.36
2017-06-22T09:20:28.720Z,32.31
2017-06-22T09:21:29.306Z,32.19
2017-06-22T09:22:29.891Z,32.30
2017-06-22T09:23:30.488Z,32.38
2017-06-22T09:24:31.073Z,32.22
2017-06-22T09:25:31.657Z,32.40
2017-06-22T09:26:32.242Z,32.59
2017-06-22T09:27:32.826Z,32.65
2017-06-22T09:28:33.409Z,32.21
2017-06-22T09:29:33.995Z,32.23
2017-06-22T09:30:34.579Z,32.26
2017-06-22T09:31:35.164Z,32.23
2017-06-22T09:32:35.749Z,32.51
2017-06-22T09:33:36.332Z,32.65
2017-06-22T09:34:36.919Z,32.74
2017-06-22T09:35:37.503Z,32.70
2017-06-22T09:36:38.089Z,32.64
2017-06-22T09:37:38.674Z,32.75
2017-06-22T09:38:39.257Z,32.74
2017-06-22T09:39:39.843Z,32.86
2017-06-22T09:40:40.430Z,32.67
2017-06-22T09:41:41.014Z,32.60
2017-06-22T09:42:41.598Z,32.60
2017-06-22T09:43:42.183Z,33.07
2017-06-22T09:44:42.768Z,33.07
2017-06-22T09:45:43.354Z,33.02
2017-06-22T09:46:43.940Z,33.04
2017-06-22T09:47:44.524Z,33.20
2017-06-22T09:48:45.109Z,32.68
2017-06-22T09:49:45.695Z,32.73
2017-06-22T09:50:46.291Z,32.75
2017-06-22T09:51:46.876Z,32.82
2017-06-22T09:52:47.463Z,32.85
2017-06-22T09:53:48.046Z,33.05
2017-06-22T09:54:48.643Z,32.78
2017-06-22T09:55:49.230Z,33.05
2017-06-22T09:56:49.814Z,32.83
2017-06-22T09:57:50.398Z,33.09
2017-06-22T09:58:50.983Z,32.90
2017-06-22T09:59:51.568Z,33.28
2017-06-22T10:00:52.154Z,33.15
2017-06-22T10:01:52.739Z,32.97
2017-06-22T10:02:53.324Z,32.85
2017-06-22T10:03:53.909Z,32.85
2017-06-22T10:04:54.495Z,32.74
2017-06-22T10:05:55.083Z,32.82
2017-06-22T10:06:55.668Z,32.86
2017-06-22T10:07:56.253Z,32.83
2017-06-22T10:08:56.840Z,32.75
2017-06-22T10:09:57.426Z,32.90
2017-06-22T10:10:58.013Z,33.11
2017-06-22T10:11:58.598Z,33.30
2017-06-22T10:12:59.183Z,33.12
2017-06-22T10:13:59.771Z,33.40
2017-06-22T10:15:00.356Z,33.37
2017-06-22T10:16:00.941Z,33.07
2017-06-22T10:17:01.527Z,32.96
2017-06-22T10:18:02.113Z,33.24
2017-06-22T10:19:02.700Z,32.90
2017-06-22T10:20:03.288Z,33.20
2017-06-22T10:21:03.905Z,32.85
2017-06-22T10:22:04.460Z,33.08
2017-06-22T10:23:05.048Z,33.19
2017-06-22T10:24:05.646Z,33.42
2017-06-22T10:25:06.235Z,33.49
2017-06-22T10:26:06.820Z,33.09
2017-06-22T10:27:07.405Z,33.17
2017-06-22T10:28:07.992Z,33.04
2017-06-22T10:29:08.578Z,32.87
2017-06-22T10:30:09.164Z,32.87
2017-06-22T10:31:09.750Z,33.02
2017-06-22T10:32:10.337Z,33.08
2017-06-22T10:33:10.924Z,32.90
2017-06-22T10:34:11.510Z,33.14
2017-06-22T10:35:12.095Z,32.93
2017-06-22T10:36:12.683Z,32.97
2017-06-22T10:37:13.269Z,32.77
2017-06-22T10:38:13.856Z,32.45
2017-06-22T10:39:14.440Z,32.31
2017-06-22T10:40:15.025Z,32.36
2017-06-22T10:41:15.611Z,32.52
2017-06-22T10:42:16.197Z,32.70
2017-06-22T10:43:16.783Z,32.73
2017-06-22T10:44:17.369Z,32.68
2017-06-22T10:45:17.955Z,32.95
2017-06-22T10:46:18.552Z,32.87
2017-06-22T10:47:19.139Z,32.95
2017-06-22T10:48:19.724Z,32.75
2017-06-22T10:49:20.311Z,32.85
2017-06-22T10:50:20.896Z,32.87
2017-06-22T10:51:21.481Z,32.60
2017-06-22T10:52:22.067Z,32.64
2017-06-22T10:53:22.653Z,32.68
2017-06-22T10:54:23.239Z,32.51
2017-06-22T10:55:23.825Z,32.60
2017-06-22T10:56:24.410Z,32.55
2017-06-22T10:57:24.998Z,32.55
2017-06-22T10:58:25.584Z,32.75
2017-06-22T10:59:26.169Z,32.78
2017-06-22T11:00:26.755Z,32.86
2017-06-22T11:01:27.341Z,32.70
2017-06-22T11:02:27.929Z,32.75
2017-06-22T11:03:28.514Z,32.90
2017-06-22T11:04:29.099Z,32.80
2017-06-22T11:05:29.697Z,32.68
2017-06-22T11:06:30.282Z,32.83
2017-06-22T11:07:30.869Z,32.67
2017-06-22T11:08:31.456Z,32.68
2017-06-22T11:09:32.042Z,32.68
2017-06-22T11:10:32.627Z,32.77
2017-06-22T11:11:33.214Z,32.87
2017-06-22T11:12:33.800Z,32.73
2017-06-22T11:13:34.387Z,32.89
2017-06-22T11:14:34.972Z,32.75
2017-06-22T11:15:35.558Z,32.85
2017-06-22T11:16:36.145Z,32.71
2017-06-22T11:17:36.731Z,32.90
2017-06-22T11:18:37.328Z,33.00
2017-06-22T11:19:37.924Z,33.12
2017-06-22T11:20:38.512Z,33.02
2017-06-22T11:21:39.096Z,33.01
2017-06-22T11:22:39.692Z,33.04
2017-06-22T11:23:40.279Z,32.80
2017-06-22T11:24:40.866Z,32.86
2017-06-22T11:25:41.451Z,32.93
2017-06-22T11:26:42.038Z,32.96
2017-06-22T11:27:42.623Z,33.09
2017-06-22T11:28:43.210Z,33.23
2017-06-22T11:29:43.795Z,33.31
2017-06-22T11:30:44.382Z,33.24
2017-06-22T11:31:44.969Z,33.05
2017-06-22T11:32:45.555Z,33.04
2017-06-22T11:33:46.140Z,33.12
2017-06-22T11:34:46.726Z,33.30
2017-06-22T11:35:47.313Z,33.23
2017-06-22T11:36:47.900Z,33.45
2017-06-22T11:37:48.486Z,33.28
2017-06-22T11:38:49.070Z,33.40
2017-06-22T11:39:49.658Z,33.31
2017-06-22T11:40:50.244Z,33.46
2017-06-22T11:41:50.831Z,33.28
2017-06-22T11:42:51.428Z,33.47
2017-06-22T11:43:52.014Z,33.40
2017-06-22T11:44:52.600Z,32.95
2017-06-22T11:45:53.188Z,33.23
2017-06-22T11:46:53.773Z,33.42
2017-06-22T11:47:54.360Z,33.36
2017-06-22T11:48:54.948Z,33.45
2017-06-22T11:49:55.533Z,33.31
2017-06-22T11:50:56.121Z,33.43
2017-06-22T11:51:56.707Z,33.40
2017-06-22T11:52:57.293Z,33.84
2017-06-22T11:53:57.879Z,33.52
2017-06-22T11:54:58.466Z,33.68
2017-06-22T11:55:59.054Z,33.83
2017-06-22T11:56:59.640Z,34.01
2017-06-22T11:58:00.239Z,33.84
2017-06-22T11:59:00.825Z,33.74
2017-06-22T12:00:01.413Z,34.02
2017-06-22T12:01:01.999Z,34.18
2017-06-22T12:02:02.586Z,33.76
2017-06-22T12:03:03.172Z,33.52
2017-06-22T12:04:03.769Z,33.59
2017-06-22T12:05:04.357Z,33.52
2017-06-22T12:06:04.942Z,33.57
2017-06-22T12:07:05.529Z,33.69
2017-06-22T12:08:06.117Z,33.45
2017-06-22T12:09:06.702Z,33.55
2017-06-22T12:10:07.292Z,33.59
2017-06-22T12:11:07.876Z,33.83
2017-06-22T12:12:08.462Z,34.06
2017-06-22T12:13:09.048Z,34.18
2017-06-22T12:14:09.634Z,34.10
2017-06-22T12:15:10.225Z,33.96
2017-06-22T12:16:10.809Z,34.20
2017-06-22T12:17:11.395Z,33.87
2017-06-22T12:18:11.981Z,33.77
2017-06-22T12:19:12.579Z,33.79
2017-06-22T12:20:13.164Z,33.57
2017-06-22T12:21:13.752Z,33.71
2017-06-22T12:22:14.340Z,33.77
2017-06-22T12:23:14.926Z,34.01
2017-06-22T12:24:15.511Z,34.08
2017-06-22T12:25:16.100Z,34.20
2017-06-22T12:26:16.684Z,34.18
2017-06-22T12:27:17.271Z,34.23
2017-06-22T12:28:17.857Z,34.38
2017-06-22T12:29:18.443Z,34.13
2017-06-22T12:30:19.032Z,34.36
2017-06-22T12:31:19.618Z,34.06
2017-06-22T12:32:20.205Z,33.95
2017-06-22T12:33:20.790Z,34.08
2017-06-22T12:34:21.377Z,34.29
2017-06-22T12:35:21.966Z,34.42
2017-06-22T12:36:22.552Z,34.39
2017-06-22T12:37:23.138Z,34.21
2017-06-22T12:38:23.741Z,33.69
2017-06-22T12:39:24.329Z,33.89
2017-06-22T12:40:24.942Z,33.79
2017-06-22T12:41:25.530Z,33.65
2017-06-22T12:42:26.116Z,33.92
2017-06-22T12:43:26.704Z,34.20
2017-06-22T12:44:27.306Z,34.17
2017-06-22T12:45:27.890Z,34.20
2017-06-22T12:46:28.476Z,34.42
2017-06-22T12:47:29.063Z,34.42
2017-06-22T12:48:29.650Z,34.23
2017-06-22T12:49:30.239Z,34.03
2017-06-22T12:50:30.829Z,34.21
2017-06-22T12:51:31.410Z,34.23
2017-06-22T12:52:32.009Z,34.23
2017-06-22T12:53:32.594Z,34.02
2017-06-22T12:54:33.180Z,34.36
2017-06-22T12:55:33.769Z,34.45
2017-06-22T12:56:34.355Z,34.54
2017-06-22T12:57:34.942Z,34.70
2017-06-22T12:58:35.541Z,34.45
2017-06-22T12:59:36.127Z,34.45